sensor_id;sensor_type;location;lat;lon;timestamp;P1;durP1;ratioP1;P2;durP2;ratioP2
84713;SDS011;74938;42.658;23.248;2024-01-15T00:01:59;22.40;;;9.75;;
84713;SDS011;74938;42.658;23.248;2024-01-15T00:04:24;20.63;;;9.75;;
84713;SDS011;74938;42.658;23.248;2024-01-15T00:06:50;23.63;;;9.95;;
84713;SDS011;74938;42.658;23.248;2024-01-15T00:09:15;26.15;;;11.48;;
84713;SDS011;74938;42.658;23.248;2024-01-15T00:11:41;28.08;;;11.82;;
84713;SDS011;74938;42.658;23.248;2024-01-15T00:14:07;27.83;;;10.77;;
84713;SDS011;74938;42.658;23.248;2024-01-15T00:16:32;22.73;;;10.10;;
84713;SDS011;74938;42.658;23.248;2024-01-15T00:18:58;27.55;;;10.50;;
84713;SDS011;74938;42.658;23.248;2024-01-15T00:21:23;24.58;;;10.35;;
84713;SDS011;74938;42.658;23.248;2024-01-15T00:23:49;25.63;;;12.23;;
84713;SDS011;74938;42.658;23.248;2024-01-15T00:26:14;27.30;;;11.13;;
84713;SDS011;74938;42.658;23.248;2024-01-15T00:28:40;23.40;;;10.50;;
84713;SDS011;74938;42.658;23.248;2024-01-15T00:31:05;23.85;;;9.85;;
84713;SDS011;74938;42.658;23.248;2024-01-15T00:33:31;19.67;;;9.48;;
84713;SDS011;74938;42.658;23.248;2024-01-15T00:35:56;20.23;;;9.25;;
84713;SDS011;74938;42.658;23.248;2024-01-15T00:38:22;24.33;;;9.95;;
84713;SDS011;74938;42.658;23.248;2024-01-15T00:40:47;26.15;;;10.52;;
84713;SDS011;74938;42.658;23.248;2024-01-15T00:43:12;20.88;;;8.30;;
84713;SDS011;74938;42.658;23.248;2024-01-15T00:45:38;23.20;;;10.30;;
84713;SDS011;74938;42.658;23.248;2024-01-15T00:48:03;25.88;;;9.30;;
84713;SDS011;74938;42.658;23.248;2024-01-15T00:50:29;25.65;;;9.75;;
84713;SDS011;74938;42.658;23.248;2024-01-15T00:52:55;20.05;;;8.88;;
84713;SDS011;74938;42.658;23.248;2024-01-15T00:55:20;23.92;;;9.60;;
84713;SDS011;74938;42.658;23.248;2024-01-15T00:57:45;19.65;;;8.48;;
84713;SDS011;74938;42.658;23.248;2024-01-15T01:00:11;18.30;;;8.23;;
84713;SDS011;74938;42.658;23.248;2024-01-15T01:02:37;21.40;;;8.45;;
84713;SDS011;74938;42.658;23.248;2024-01-15T01:05:02;23.10;;;10.13;;
84713;SDS011;74938;42.658;23.248;2024-01-15T01:07:28;20.05;;;9.25;;
84713;SDS011;74938;42.658;23.248;2024-01-15T01:09:54;21.38;;;8.77;;
84713;SDS011;74938;42.658;23.248;2024-01-15T01:12:20;17.90;;;8.98;;
84713;SDS011;74938;42.658;23.248;2024-01-15T01:14:45;20.75;;;8.02;;
84713;SDS011;74938;42.658;23.248;2024-01-15T01:17:10;21.02;;;9.65;;
84713;SDS011;74938;42.658;23.248;2024-01-15T01:19:36;17.85;;;8.23;;
84713;SDS011;74938;42.658;23.248;2024-01-15T01:22:01;18.42;;;9.27;;
84713;SDS011;74938;42.658;23.248;2024-01-15T01:24:27;21.73;;;9.30;;
84713;SDS011;74938;42.658;23.248;2024-01-15T01:26:53;18.38;;;7.28;;
84713;SDS011;74938;42.658;23.248;2024-01-15T01:29:18;24.83;;;9.45;;
84713;SDS011;74938;42.658;23.248;2024-01-15T01:31:44;18.60;;;7.28;;
84713;SDS011;74938;42.658;23.248;2024-01-15T01:34:10;18.88;;;8.75;;
84713;SDS011;74938;42.658;23.248;2024-01-15T01:36:36;18.20;;;8.68;;
84713;SDS011;74938;42.658;23.248;2024-01-15T01:39:01;20.77;;;9.57;;
84713;SDS011;74938;42.658;23.248;2024-01-15T01:41:27;20.98;;;8.30;;
84713;SDS011;74938;42.658;23.248;2024-01-15T01:43:52;19.40;;;8.02;;
84713;SDS011;74938;42.658;23.248;2024-01-15T01:46:18;18.95;;;9.30;;
84713;SDS011;74938;42.658;23.248;2024-01-15T01:48:43;20.67;;;8.52;;
84713;SDS011;74938;42.658;23.248;2024-01-15T01:51:09;22.67;;;9.45;;
84713;SDS011;74938;42.658;23.248;2024-01-15T01:53:35;23.27;;;8.77;;
84713;SDS011;74938;42.658;23.248;2024-01-15T01:56:03;19.35;;;10.15;;
84713;SDS011;74938;42.658;23.248;2024-01-15T01:58:29;22.17;;;8.20;;
84713;SDS011;74938;42.658;23.248;2024-01-15T02:00:55;20.45;;;8.00;;
84713;SDS011;74938;42.658;23.248;2024-01-15T02:03:22;19.20;;;7.95;;
84713;SDS011;74938;42.658;23.248;2024-01-15T02:05:47;23.08;;;9.02;;
84713;SDS011;74938;42.658;23.248;2024-01-15T02:08:14;19.00;;;8.10;;
84713;SDS011;74938;42.658;23.248;2024-01-15T02:10:40;21.80;;;9.15;;
84713;SDS011;74938;42.658;23.248;2024-01-15T02:13:05;20.02;;;8.80;;
84713;SDS011;74938;42.658;23.248;2024-01-15T02:15:31;21.15;;;9.98;;
84713;SDS011;74938;42.658;23.248;2024-01-15T02:18:00;23.95;;;8.73;;
84713;SDS011;74938;42.658;23.248;2024-01-15T02:20:26;18.45;;;8.45;;
84713;SDS011;74938;42.658;23.248;2024-01-15T02:22:52;24.23;;;10.15;;
84713;SDS011;74938;42.658;23.248;2024-01-15T02:25:18;27.00;;;10.13;;
84713;SDS011;74938;42.658;23.248;2024-01-15T02:27:44;17.58;;;8.40;;
84713;SDS011;74938;42.658;23.248;2024-01-15T02:30:11;26.05;;;9.68;;
84713;SDS011;74938;42.658;23.248;2024-01-15T02:32:40;20.65;;;9.07;;
84713;SDS011;74938;42.658;23.248;2024-01-15T02:35:05;16.63;;;7.25;;
84713;SDS011;74938;42.658;23.248;2024-01-15T02:37:31;22.48;;;8.48;;
84713;SDS011;74938;42.658;23.248;2024-01-15T02:39:56;19.30;;;8.23;;
84713;SDS011;74938;42.658;23.248;2024-01-15T02:42:22;22.50;;;8.52;;
84713;SDS011;74938;42.658;23.248;2024-01-15T02:44:47;20.55;;;9.55;;
84713;SDS011;74938;42.658;23.248;2024-01-15T02:47:13;22.58;;;9.15;;
84713;SDS011;74938;42.658;23.248;2024-01-15T02:49:39;23.35;;;8.70;;
84713;SDS011;74938;42.658;23.248;2024-01-15T02:52:04;26.25;;;10.63;;
84713;SDS011;74938;42.658;23.248;2024-01-15T02:54:30;21.65;;;9.70;;
84713;SDS011;74938;42.658;23.248;2024-01-15T02:56:55;25.17;;;10.15;;
84713;SDS011;74938;42.658;23.248;2024-01-15T02:59:21;23.58;;;9.82;;
84713;SDS011;74938;42.658;23.248;2024-01-15T03:01:46;21.80;;;8.70;;
84713;SDS011;74938;42.658;23.248;2024-01-15T03:04:11;17.52;;;8.38;;
84713;SDS011;74938;42.658;23.248;2024-01-15T03:06:37;19.15;;;8.40;;
84713;SDS011;74938;42.658;23.248;2024-01-15T03:09:03;20.20;;;8.43;;
84713;SDS011;74938;42.658;23.248;2024-01-15T03:11:28;22.67;;;9.15;;
84713;SDS011;74938;42.658;23.248;2024-01-15T03:13:54;24.30;;;10.00;;
84713;SDS011;74938;42.658;23.248;2024-01-15T03:16:19;18.70;;;9.75;;
84713;SDS011;74938;42.658;23.248;2024-01-15T03:18:45;16.23;;;8.15;;
84713;SDS011;74938;42.658;23.248;2024-01-15T03:21:10;18.75;;;8.40;;
84713;SDS011;74938;42.658;23.248;2024-01-15T03:23:35;22.88;;;9.15;;
84713;SDS011;74938;42.658;23.248;2024-01-15T03:26:01;22.33;;;7.95;;
84713;SDS011;74938;42.658;23.248;2024-01-15T03:28:26;19.17;;;8.68;;
84713;SDS011;74938;42.658;23.248;2024-01-15T03:30:51;21.92;;;9.20;;
84713;SDS011;74938;42.658;23.248;2024-01-15T03:33:17;20.25;;;9.00;;
84713;SDS011;74938;42.658;23.248;2024-01-15T03:35:42;17.88;;;8.98;;
84713;SDS011;74938;42.658;23.248;2024-01-15T03:38:08;17.40;;;7.95;;
84713;SDS011;74938;42.658;23.248;2024-01-15T03:40:33;17.40;;;7.72;;
84713;SDS011;74938;42.658;23.248;2024-01-15T03:42:58;22.13;;;9.90;;
84713;SDS011;74938;42.658;23.248;2024-01-15T03:45:24;18.45;;;7.72;;
84713;SDS011;74938;42.658;23.248;2024-01-15T03:47:49;13.18;;;6.60;;
84713;SDS011;74938;42.658;23.248;2024-01-15T03:50:14;19.88;;;8.82;;
84713;SDS011;74938;42.658;23.248;2024-01-15T03:52:40;16.35;;;7.53;;
84713;SDS011;74938;42.658;23.248;2024-01-15T03:55:05;23.33;;;8.32;;
84713;SDS011;74938;42.658;23.248;2024-01-15T03:57:31;30.20;;;8.93;;
84713;SDS011;74938;42.658;23.248;2024-01-15T03:59:56;14.95;;;6.60;;
84713;SDS011;74938;42.658;23.248;2024-01-15T04:02:22;17.52;;;7.57;;
84713;SDS011;74938;42.658;23.248;2024-01-15T04:04:47;17.38;;;7.00;;
84713;SDS011;74938;42.658;23.248;2024-01-15T04:07:12;19.65;;;7.60;;
84713;SDS011;74938;42.658;23.248;2024-01-15T04:09:38;20.85;;;8.60;;
84713;SDS011;74938;42.658;23.248;2024-01-15T04:12:03;19.77;;;7.25;;
84713;SDS011;74938;42.658;23.248;2024-01-15T04:14:29;30.13;;;11.95;;
84713;SDS011;74938;42.658;23.248;2024-01-15T04:16:54;16.60;;;7.90;;
84713;SDS011;74938;42.658;23.248;2024-01-15T04:19:19;13.40;;;7.20;;
84713;SDS011;74938;42.658;23.248;2024-01-15T04:21:45;16.77;;;6.88;;
84713;SDS011;74938;42.658;23.248;2024-01-15T04:24:10;13.93;;;7.22;;
84713;SDS011;74938;42.658;23.248;2024-01-15T04:26:35;12.70;;;6.97;;
84713;SDS011;74938;42.658;23.248;2024-01-15T04:29:01;15.25;;;6.63;;
84713;SDS011;74938;42.658;23.248;2024-01-15T04:31:26;11.82;;;5.60;;
84713;SDS011;74938;42.658;23.248;2024-01-15T04:33:52;19.75;;;7.60;;
84713;SDS011;74938;42.658;23.248;2024-01-15T04:36:17;16.92;;;7.88;;
84713;SDS011;74938;42.658;23.248;2024-01-15T04:38:43;17.33;;;7.57;;
84713;SDS011;74938;42.658;23.248;2024-01-15T04:41:14;21.13;;;7.57;;
84713;SDS011;74938;42.658;23.248;2024-01-15T04:43:41;17.95;;;8.23;;
84713;SDS011;74938;42.658;23.248;2024-01-15T04:46:06;18.73;;;9.13;;
84713;SDS011;74938;42.658;23.248;2024-01-15T04:48:32;18.40;;;8.10;;
84713;SDS011;74938;42.658;23.248;2024-01-15T04:50:58;18.52;;;7.50;;
84713;SDS011;74938;42.658;23.248;2024-01-15T04:53:23;14.25;;;7.18;;
84713;SDS011;74938;42.658;23.248;2024-01-15T04:55:49;17.88;;;7.10;;
84713;SDS011;74938;42.658;23.248;2024-01-15T04:58:14;15.48;;;6.55;;
84713;SDS011;74938;42.658;23.248;2024-01-15T05:00:39;10.35;;;5.25;;
84713;SDS011;74938;42.658;23.248;2024-01-15T05:03:05;22.38;;;8.40;;
84713;SDS011;74938;42.658;23.248;2024-01-15T05:05:30;23.38;;;10.13;;
84713;SDS011;74938;42.658;23.248;2024-01-15T05:07:55;21.73;;;7.22;;
84713;SDS011;74938;42.658;23.248;2024-01-15T05:10:21;18.77;;;9.23;;
84713;SDS011;74938;42.658;23.248;2024-01-15T05:12:46;24.95;;;8.65;;
84713;SDS011;74938;42.658;23.248;2024-01-15T05:15:11;17.08;;;7.72;;
84713;SDS011;74938;42.658;23.248;2024-01-15T05:17:37;22.63;;;8.68;;
84713;SDS011;74938;42.658;23.248;2024-01-15T05:20:02;18.90;;;8.38;;
84713;SDS011;74938;42.658;23.248;2024-01-15T05:22:28;27.40;;;12.95;;
84713;SDS011;74938;42.658;23.248;2024-01-15T05:24:53;27.98;;;12.13;;
84713;SDS011;74938;42.658;23.248;2024-01-15T05:27:19;42.53;;;15.55;;
84713;SDS011;74938;42.658;23.248;2024-01-15T05:29:44;50.42;;;19.65;;
84713;SDS011;74938;42.658;23.248;2024-01-15T05:32:09;33.25;;;13.27;;
84713;SDS011;74938;42.658;23.248;2024-01-15T05:34:35;36.00;;;14.23;;
84713;SDS011;74938;42.658;23.248;2024-01-15T05:37:00;31.45;;;13.48;;
84713;SDS011;74938;42.658;23.248;2024-01-15T05:39:25;23.08;;;10.30;;
84713;SDS011;74938;42.658;23.248;2024-01-15T05:41:51;27.05;;;13.77;;
84713;SDS011;74938;42.658;23.248;2024-01-15T05:44:16;29.98;;;14.38;;
84713;SDS011;74938;42.658;23.248;2024-01-15T05:46:42;31.02;;;14.77;;
84713;SDS011;74938;42.658;23.248;2024-01-15T05:49:08;34.45;;;15.18;;
84713;SDS011;74938;42.658;23.248;2024-01-15T05:51:33;34.45;;;15.23;;
84713;SDS011;74938;42.658;23.248;2024-01-15T05:53:58;31.23;;;16.13;;
84713;SDS011;74938;42.658;23.248;2024-01-15T05:56:24;31.90;;;14.73;;
84713;SDS011;74938;42.658;23.248;2024-01-15T05:58:49;26.63;;;12.85;;
84713;SDS011;74938;42.658;23.248;2024-01-15T06:01:15;28.88;;;13.00;;
84713;SDS011;74938;42.658;23.248;2024-01-15T06:03:40;30.48;;;12.05;;
84713;SDS011;74938;42.658;23.248;2024-01-15T06:06:05;30.45;;;13.23;;
84713;SDS011;74938;42.658;23.248;2024-01-15T06:08:31;33.03;;;12.95;;
84713;SDS011;74938;42.658;23.248;2024-01-15T06:10:56;27.35;;;12.27;;
84713;SDS011;74938;42.658;23.248;2024-01-15T06:13:22;37.70;;;12.23;;
84713;SDS011;74938;42.658;23.248;2024-01-15T06:15:47;31.13;;;13.52;;
84713;SDS011;74938;42.658;23.248;2024-01-15T06:18:13;25.13;;;11.38;;
84713;SDS011;74938;42.658;23.248;2024-01-15T06:23:04;17.42;;;9.60;;
84713;SDS011;74938;42.658;23.248;2024-01-15T06:25:29;20.63;;;9.98;;
84713;SDS011;74938;42.658;23.248;2024-01-15T06:27:54;24.25;;;11.13;;
84713;SDS011;74938;42.658;23.248;2024-01-15T06:30:20;17.25;;;8.65;;
84713;SDS011;74938;42.658;23.248;2024-01-15T06:32:45;20.85;;;9.95;;
84713;SDS011;74938;42.658;23.248;2024-01-15T06:35:11;22.05;;;9.93;;
84713;SDS011;74938;42.658;23.248;2024-01-15T06:37:36;23.58;;;12.00;;
84713;SDS011;74938;42.658;23.248;2024-01-15T06:40:02;40.92;;;17.42;;
84713;SDS011;74938;42.658;23.248;2024-01-15T06:42:28;36.55;;;16.05;;
84713;SDS011;74938;42.658;23.248;2024-01-15T06:44:53;104.18;;;39.17;;
84713;SDS011;74938;42.658;23.248;2024-01-15T06:47:19;59.53;;;24.30;;
84713;SDS011;74938;42.658;23.248;2024-01-15T06:49:44;36.92;;;16.52;;
84713;SDS011;74938;42.658;23.248;2024-01-15T06:52:10;28.48;;;12.88;;
84713;SDS011;74938;42.658;23.248;2024-01-15T06:54:37;26.40;;;12.13;;
84713;SDS011;74938;42.658;23.248;2024-01-15T06:57:02;30.35;;;13.25;;
84713;SDS011;74938;42.658;23.248;2024-01-15T06:59:28;30.20;;;14.27;;
84713;SDS011;74938;42.658;23.248;2024-01-15T07:01:53;23.05;;;11.73;;
84713;SDS011;74938;42.658;23.248;2024-01-15T07:04:20;31.73;;;12.68;;
84713;SDS011;74938;42.658;23.248;2024-01-15T07:06:45;23.75;;;13.05;;
84713;SDS011;74938;42.658;23.248;2024-01-15T07:09:10;29.80;;;12.77;;
84713;SDS011;74938;42.658;23.248;2024-01-15T07:11:36;28.35;;;13.38;;
84713;SDS011;74938;42.658;23.248;2024-01-15T07:14:01;25.80;;;11.82;;
84713;SDS011;74938;42.658;23.248;2024-01-15T07:16:27;26.10;;;12.43;;
84713;SDS011;74938;42.658;23.248;2024-01-15T07:18:52;27.52;;;11.43;;
84713;SDS011;74938;42.658;23.248;2024-01-15T07:21:17;24.52;;;10.43;;
84713;SDS011;74938;42.658;23.248;2024-01-15T07:23:43;28.30;;;11.50;;
84713;SDS011;74938;42.658;23.248;2024-01-15T07:26:08;30.33;;;12.80;;
84713;SDS011;74938;42.658;23.248;2024-01-15T07:28:34;25.20;;;10.85;;
84713;SDS011;74938;42.658;23.248;2024-01-15T07:30:59;26.48;;;12.05;;
84713;SDS011;74938;42.658;23.248;2024-01-15T07:33:26;37.45;;;16.17;;
84713;SDS011;74938;42.658;23.248;2024-01-15T07:35:51;42.90;;;16.92;;
84713;SDS011;74938;42.658;23.248;2024-01-15T07:38:17;38.40;;;15.30;;
84713;SDS011;74938;42.658;23.248;2024-01-15T07:40:42;37.55;;;14.85;;
84713;SDS011;74938;42.658;23.248;2024-01-15T07:43:07;28.88;;;13.95;;
84713;SDS011;74938;42.658;23.248;2024-01-15T07:45:33;28.45;;;13.13;;
84713;SDS011;74938;42.658;23.248;2024-01-15T07:47:58;28.05;;;13.23;;
84713;SDS011;74938;42.658;23.248;2024-01-15T07:50:24;38.40;;;15.05;;
84713;SDS011;74938;42.658;23.248;2024-01-15T07:52:49;30.35;;;14.00;;
84713;SDS011;74938;42.658;23.248;2024-01-15T07:55:14;34.22;;;13.35;;
84713;SDS011;74938;42.658;23.248;2024-01-15T07:57:40;33.10;;;13.90;;
84713;SDS011;74938;42.658;23.248;2024-01-15T08:00:05;33.13;;;13.90;;
84713;SDS011;74938;42.658;23.248;2024-01-15T08:02:31;28.73;;;12.77;;
84713;SDS011;74938;42.658;23.248;2024-01-15T08:04:57;31.42;;;14.35;;
84713;SDS011;74938;42.658;23.248;2024-01-15T08:07:24;36.42;;;17.67;;
84713;SDS011;74938;42.658;23.248;2024-01-15T08:09:50;45.90;;;17.33;;
84713;SDS011;74938;42.658;23.248;2024-01-15T08:12:16;49.05;;;22.48;;
84713;SDS011;74938;42.658;23.248;2024-01-15T08:14:42;41.60;;;18.90;;
84713;SDS011;74938;42.658;23.248;2024-01-15T08:17:07;42.97;;;19.15;;
84713;SDS011;74938;42.658;23.248;2024-01-15T08:19:33;40.45;;;19.00;;
84713;SDS011;74938;42.658;23.248;2024-01-15T08:21:58;39.13;;;18.77;;
84713;SDS011;74938;42.658;23.248;2024-01-15T08:24:23;35.72;;;17.48;;
84713;SDS011;74938;42.658;23.248;2024-01-15T08:26:49;33.13;;;15.57;;
84713;SDS011;74938;42.658;23.248;2024-01-15T08:29:14;37.22;;;17.13;;
84713;SDS011;74938;42.658;23.248;2024-01-15T08:31:40;45.67;;;21.75;;
84713;SDS011;74938;42.658;23.248;2024-01-15T08:34:05;44.22;;;20.95;;
84713;SDS011;74938;42.658;23.248;2024-01-15T08:36:30;144.10;;;50.25;;
84713;SDS011;74938;42.658;23.248;2024-01-15T08:38:56;79.82;;;33.15;;
84713;SDS011;74938;42.658;23.248;2024-01-15T08:41:21;55.78;;;24.75;;
84713;SDS011;74938;42.658;23.248;2024-01-15T08:43:47;61.92;;;22.70;;
84713;SDS011;74938;42.658;23.248;2024-01-15T08:46:12;56.53;;;24.75;;
84713;SDS011;74938;42.658;23.248;2024-01-15T08:48:38;64.28;;;28.00;;
84713;SDS011;74938;42.658;23.248;2024-01-15T08:51:04;75.53;;;29.85;;
84713;SDS011;74938;42.658;23.248;2024-01-15T08:53:30;52.72;;;21.77;;
84713;SDS011;74938;42.658;23.248;2024-01-15T08:55:55;38.63;;;20.83;;
84713;SDS011;74938;42.658;23.248;2024-01-15T08:58:21;52.85;;;26.98;;
84713;SDS011;74938;42.658;23.248;2024-01-15T09:00:48;45.58;;;20.83;;
84713;SDS011;74938;42.658;23.248;2024-01-15T09:03:14;43.10;;;19.38;;
84713;SDS011;74938;42.658;23.248;2024-01-15T09:05:39;40.20;;;18.02;;
84713;SDS011;74938;42.658;23.248;2024-01-15T09:08:05;47.70;;;21.63;;
84713;SDS011;74938;42.658;23.248;2024-01-15T09:10:31;43.42;;;19.42;;
84713;SDS011;74938;42.658;23.248;2024-01-15T09:12:56;39.08;;;18.02;;
84713;SDS011;74938;42.658;23.248;2024-01-15T09:15:22;54.13;;;23.75;;
84713;SDS011;74938;42.658;23.248;2024-01-15T09:17:48;44.83;;;20.25;;
84713;SDS011;74938;42.658;23.248;2024-01-15T09:20:14;50.80;;;24.38;;
84713;SDS011;74938;42.658;23.248;2024-01-15T09:22:40;54.58;;;25.90;;
84713;SDS011;74938;42.658;23.248;2024-01-15T09:25:07;46.65;;;24.48;;
84713;SDS011;74938;42.658;23.248;2024-01-15T09:27:34;49.45;;;23.45;;
84713;SDS011;74938;42.658;23.248;2024-01-15T09:30:00;48.92;;;22.55;;
84713;SDS011;74938;42.658;23.248;2024-01-15T09:32:25;66.25;;;27.40;;
84713;SDS011;74938;42.658;23.248;2024-01-15T09:34:50;59.00;;;28.88;;
84713;SDS011;74938;42.658;23.248;2024-01-15T09:37:16;50.85;;;27.27;;
84713;SDS011;74938;42.658;23.248;2024-01-15T09:39:41;56.33;;;25.88;;
84713;SDS011;74938;42.658;23.248;2024-01-15T09:42:07;46.22;;;23.90;;
84713;SDS011;74938;42.658;23.248;2024-01-15T09:44:33;62.63;;;28.23;;
84713;SDS011;74938;42.658;23.248;2024-01-15T09:46:59;56.75;;;25.33;;
84713;SDS011;74938;42.658;23.248;2024-01-15T09:49:25;50.20;;;21.88;;
84713;SDS011;74938;42.658;23.248;2024-01-15T09:51:50;45.15;;;21.30;;
84713;SDS011;74938;42.658;23.248;2024-01-15T09:54:16;46.72;;;21.25;;
84713;SDS011;74938;42.658;23.248;2024-01-15T09:56:44;46.17;;;21.48;;
84713;SDS011;74938;42.658;23.248;2024-01-15T09:59:13;47.22;;;19.05;;
84713;SDS011;74938;42.658;23.248;2024-01-15T10:01:40;40.10;;;18.48;;
84713;SDS011;74938;42.658;23.248;2024-01-15T10:04:08;43.20;;;17.50;;
84713;SDS011;74938;42.658;23.248;2024-01-15T10:06:33;36.30;;;19.02;;
84713;SDS011;74938;42.658;23.248;2024-01-15T10:08:59;29.77;;;14.30;;
84713;SDS011;74938;42.658;23.248;2024-01-15T10:11:25;31.58;;;14.07;;
84713;SDS011;74938;42.658;23.248;2024-01-15T10:13:51;30.80;;;13.43;;
84713;SDS011;74938;42.658;23.248;2024-01-15T10:16:20;34.28;;;16.05;;
84713;SDS011;74938;42.658;23.248;2024-01-15T10:18:47;38.50;;;16.15;;
84713;SDS011;74938;42.658;23.248;2024-01-15T10:21:12;43.53;;;18.33;;
84713;SDS011;74938;42.658;23.248;2024-01-15T10:23:39;36.15;;;18.15;;
84713;SDS011;74938;42.658;23.248;2024-01-15T10:26:05;34.00;;;16.67;;
84713;SDS011;74938;42.658;23.248;2024-01-15T10:28:30;34.10;;;16.08;;
84713;SDS011;74938;42.658;23.248;2024-01-15T10:30:57;27.55;;;14.68;;
84713;SDS011;74938;42.658;23.248;2024-01-15T10:33:24;32.53;;;17.13;;
84713;SDS011;74938;42.658;23.248;2024-01-15T10:35:51;35.45;;;16.30;;
84713;SDS011;74938;42.658;23.248;2024-01-15T10:38:20;35.97;;;18.30;;
84713;SDS011;74938;42.658;23.248;2024-01-15T10:40:47;35.33;;;17.83;;
84713;SDS011;74938;42.658;23.248;2024-01-15T10:43:19;42.72;;;17.80;;
84713;SDS011;74938;42.658;23.248;2024-01-15T10:45:46;43.45;;;20.48;;
84713;SDS011;74938;42.658;23.248;2024-01-15T10:48:12;45.65;;;22.88;;
84713;SDS011;74938;42.658;23.248;2024-01-15T10:50:38;48.65;;;21.40;;
84713;SDS011;74938;42.658;23.248;2024-01-15T10:53:04;42.85;;;22.02;;
84713;SDS011;74938;42.658;23.248;2024-01-15T10:55:30;54.22;;;25.25;;
84713;SDS011;74938;42.658;23.248;2024-01-15T10:57:57;43.72;;;21.33;;
84713;SDS011;74938;42.658;23.248;2024-01-15T11:00:23;49.88;;;24.35;;
84713;SDS011;74938;42.658;23.248;2024-01-15T11:02:50;49.03;;;23.95;;
84713;SDS011;74938;42.658;23.248;2024-01-15T11:05:16;52.22;;;25.02;;
84713;SDS011;74938;42.658;23.248;2024-01-15T11:07:43;54.63;;;25.10;;
84713;SDS011;74938;42.658;23.248;2024-01-15T11:10:37;47.35;;;24.52;;
84713;SDS011;74938;42.658;23.248;2024-01-15T11:13:22;48.45;;;22.20;;
84713;SDS011;74938;42.658;23.248;2024-01-15T11:16:05;48.45;;;23.10;;
84713;SDS011;74938;42.658;23.248;2024-01-15T11:18:34;49.05;;;24.23;;
84713;SDS011;74938;42.658;23.248;2024-01-15T11:21:20;44.90;;;22.45;;
84713;SDS011;74938;42.658;23.248;2024-01-15T11:29:06;52.42;;;25.20;;
84713;SDS011;74938;42.658;23.248;2024-01-15T11:34:20;48.33;;;23.50;;
84713;SDS011;74938;42.658;23.248;2024-01-15T11:37:06;55.25;;;23.88;;
84713;SDS011;74938;42.658;23.248;2024-01-15T11:42:00;53.15;;;24.42;;
84713;SDS011;74938;42.658;23.248;2024-01-15T11:44:28;53.67;;;23.70;;
84713;SDS011;74938;42.658;23.248;2024-01-15T11:52:33;42.08;;;21.63;;
84713;SDS011;74938;42.658;23.248;2024-01-15T12:00:21;45.50;;;21.55;;
84713;SDS011;74938;42.658;23.248;2024-01-15T12:02:48;49.67;;;22.50;;
84713;SDS011;74938;42.658;23.248;2024-01-15T12:05:14;46.03;;;21.88;;
84713;SDS011;74938;42.658;23.248;2024-01-15T12:07:41;43.70;;;21.77;;
84713;SDS011;74938;42.658;23.248;2024-01-15T12:10:08;52.45;;;23.08;;
84713;SDS011;74938;42.658;23.248;2024-01-15T12:15:30;57.67;;;22.90;;
84713;SDS011;74938;42.658;23.248;2024-01-15T12:17:56;50.00;;;22.80;;
84713;SDS011;74938;42.658;23.248;2024-01-15T12:20:26;43.05;;;20.42;;
84713;SDS011;74938;42.658;23.248;2024-01-15T12:22:52;41.35;;;19.58;;
84713;SDS011;74938;42.658;23.248;2024-01-15T12:25:18;49.78;;;21.05;;
84713;SDS011;74938;42.658;23.248;2024-01-15T12:27:44;50.42;;;22.13;;
84713;SDS011;74938;42.658;23.248;2024-01-15T12:30:11;64.68;;;30.27;;
84713;SDS011;74938;42.658;23.248;2024-01-15T12:32:37;47.83;;;22.77;;
84713;SDS011;74938;42.658;23.248;2024-01-15T12:35:02;49.03;;;22.65;;
84713;SDS011;74938;42.658;23.248;2024-01-15T12:37:29;49.75;;;21.40;;
84713;SDS011;74938;42.658;23.248;2024-01-15T12:39:54;62.97;;;29.98;;
84713;SDS011;74938;42.658;23.248;2024-01-15T12:42:20;44.17;;;22.92;;
84713;SDS011;74938;42.658;23.248;2024-01-15T12:44:46;39.70;;;19.65;;
84713;SDS011;74938;42.658;23.248;2024-01-15T12:47:12;34.22;;;16.38;;
84713;SDS011;74938;42.658;23.248;2024-01-15T12:49:39;26.95;;;15.75;;
84713;SDS011;74938;42.658;23.248;2024-01-15T12:52:10;34.03;;;17.50;;
84713;SDS011;74938;42.658;23.248;2024-01-15T12:54:35;66.95;;;28.63;;
84713;SDS011;74938;42.658;23.248;2024-01-15T12:57:01;52.05;;;24.17;;
84713;SDS011;74938;42.658;23.248;2024-01-15T12:59:26;46.35;;;24.48;;
84713;SDS011;74938;42.658;23.248;2024-01-15T13:01:52;44.58;;;22.13;;
84713;SDS011;74938;42.658;23.248;2024-01-15T13:04:21;40.50;;;18.58;;
84713;SDS011;74938;42.658;23.248;2024-01-15T13:06:48;43.28;;;21.33;;
84713;SDS011;74938;42.658;23.248;2024-01-15T13:09:15;37.58;;;16.88;;
84713;SDS011;74938;42.658;23.248;2024-01-15T13:11:40;34.13;;;17.63;;
84713;SDS011;74938;42.658;23.248;2024-01-15T13:14:06;44.92;;;20.70;;
84713;SDS011;74938;42.658;23.248;2024-01-15T13:16:31;39.78;;;18.83;;
84713;SDS011;74938;42.658;23.248;2024-01-15T13:18:57;39.10;;;17.50;;
84713;SDS011;74938;42.658;23.248;2024-01-15T13:21:23;49.70;;;22.75;;
84713;SDS011;74938;42.658;23.248;2024-01-15T13:23:49;60.85;;;28.17;;
84713;SDS011;74938;42.658;23.248;2024-01-15T13:26:15;70.07;;;29.23;;
84713;SDS011;74938;42.658;23.248;2024-01-15T13:28:40;52.85;;;23.00;;
84713;SDS011;74938;42.658;23.248;2024-01-15T13:31:05;38.13;;;18.83;;
84713;SDS011;74938;42.658;23.248;2024-01-15T13:33:31;42.78;;;21.02;;
84713;SDS011;74938;42.658;23.248;2024-01-15T13:35:56;64.30;;;28.02;;
84713;SDS011;74938;42.658;23.248;2024-01-15T13:38:21;54.95;;;22.08;;
84713;SDS011;74938;42.658;23.248;2024-01-15T13:40:47;79.28;;;33.53;;
84713;SDS011;74938;42.658;23.248;2024-01-15T13:43:12;75.35;;;30.92;;
84713;SDS011;74938;42.658;23.248;2024-01-15T13:45:39;52.88;;;25.13;;
84713;SDS011;74938;42.658;23.248;2024-01-15T13:48:06;97.75;;;38.15;;
84713;SDS011;74938;42.658;23.248;2024-01-15T13:50:33;69.85;;;32.05;;
84713;SDS011;74938;42.658;23.248;2024-01-15T13:53:00;73.63;;;30.23;;
84713;SDS011;74938;42.658;23.248;2024-01-15T13:55:25;79.22;;;32.47;;
84713;SDS011;74938;42.658;23.248;2024-01-15T13:57:50;73.20;;;34.10;;
84713;SDS011;74938;42.658;23.248;2024-01-15T14:00:16;74.03;;;32.13;;
84713;SDS011;74938;42.658;23.248;2024-01-15T14:02:44;57.45;;;25.80;;
84713;SDS011;74938;42.658;23.248;2024-01-15T14:05:10;85.97;;;32.80;;
84713;SDS011;74938;42.658;23.248;2024-01-15T14:07:37;113.50;;;43.15;;
84713;SDS011;74938;42.658;23.248;2024-01-15T14:10:04;120.75;;;44.45;;
84713;SDS011;74938;42.658;23.248;2024-01-15T14:12:30;81.45;;;33.53;;
84713;SDS011;74938;42.658;23.248;2024-01-15T14:14:55;52.10;;;22.20;;
84713;SDS011;74938;42.658;23.248;2024-01-15T14:17:21;56.60;;;24.90;;
84713;SDS011;74938;42.658;23.248;2024-01-15T14:19:46;52.58;;;23.33;;
84713;SDS011;74938;42.658;23.248;2024-01-15T14:22:12;52.90;;;21.60;;
84713;SDS011;74938;42.658;23.248;2024-01-15T14:24:37;41.42;;;19.42;;
84713;SDS011;74938;42.658;23.248;2024-01-15T14:27:02;43.20;;;18.65;;
84713;SDS011;74938;42.658;23.248;2024-01-15T14:29:30;42.97;;;19.25;;
84713;SDS011;74938;42.658;23.248;2024-01-15T14:31:55;40.72;;;19.20;;
84713;SDS011;74938;42.658;23.248;2024-01-15T14:34:21;33.60;;;14.77;;